createdAt,value
2023-03-15T00:03:41.999Z,19.6
2023-03-15T00:08:45.315Z,20.6
2023-03-15T00:13:48.068Z,20.6
2023-03-15T00:18:51.210Z,23.2
2023-03-15T00:23:53.958Z,28.2
2023-03-15T00:28:56.776Z,27.9
2023-03-15T00:33:59.511Z,24.4
2023-03-15T00:39:02.333Z,20.9
2023-03-15T00:44:05.525Z,25.9
2023-03-15T00:49:08.028Z,21.9
2023-03-15T00:54:10.246Z,18.3
2023-03-15T00:59:12.494Z,14.7
2023-03-15T01:04:14.682Z,14.5
2023-03-15T01:09:17.153Z,15.7
2023-03-15T01:14:19.768Z,18.2
2023-03-15T01:19:22.585Z,17.7
2023-03-15T01:24:26.213Z,20.7
2023-03-15T01:29:28.963Z,21
2023-03-15T01:34:31.671Z,19.8
2023-03-15T01:39:35.495Z,19
2023-03-15T01:44:38.475Z,17
2023-03-15T01:49:41.658Z,13.6
2023-03-15T01:54:44.656Z,20.3
2023-03-15T01:59:48.317Z,31
2023-03-15T02:04:51.139Z,17.7
2023-03-15T02:09:54.229Z,12.3
2023-03-15T02:14:56.603Z,10
2023-03-15T02:19:58.913Z,8.2
2023-03-15T02:25:01.897Z,9.4
2023-03-15T02:30:04.751Z,9.3
2023-03-15T02:35:07.001Z,8.6
2023-03-15T02:40:15.908Z,8.9
2023-03-15T02:50:29.491Z,11.9
2023-03-15T02:55:31.241Z,10.9
2023-03-15T03:00:35.743Z,10.9
2023-03-15T03:05:38.095Z,11
2023-03-15T03:10:40.330Z,9.8
2023-03-15T03:15:44.022Z,11.2
2023-03-15T03:20:51.071Z,10.6
2023-03-15T03:25:57.332Z,11.1
2023-03-15T03:31:00.947Z,9.4
2023-03-15T03:36:04.599Z,11.3
2023-03-15T03:41:07.504Z,11
2023-03-15T03:46:10.364Z,10.6
2023-03-15T03:51:14.489Z,11.9
2023-03-15T03:56:18.913Z,11.1
2023-03-15T04:01:21.550Z,8.1
2023-03-15T04:06:27.070Z,24.9
2023-03-15T04:11:28.160Z,13.6
2023-03-15T04:16:30.888Z,12.8
2023-03-15T04:21:36.289Z,13.9
2023-03-15T04:26:39.353Z,13.5
2023-03-15T04:31:42.179Z,12.4
2023-03-15T04:36:45.737Z,20.9
2023-03-15T04:41:49.023Z,19.5
2023-03-15T04:46:53.587Z,27.4
2023-03-15T04:52:00.203Z,45.3
2023-03-15T04:57:02.648Z,57
2023-03-15T05:02:05.336Z,61.9
2023-03-15T05:07:08.291Z,78.1
2023-03-15T05:12:10.824Z,87.4
2023-03-15T05:17:13.753Z,87.6
2023-03-15T05:22:16.399Z,124.7
2023-03-15T05:27:21.985Z,128.1
2023-03-15T05:32:24.135Z,104.2
2023-03-15T05:37:26.908Z,107.7
2023-03-15T05:42:29.071Z,97.1
2023-03-15T05:47:33.147Z,86.7
2023-03-15T05:52:35.908Z,92.6
2023-03-15T05:57:38.250Z,91
2023-03-15T06:02:40.442Z,100.9
2023-03-15T06:07:42.806Z,116.9
2023-03-15T06:12:46.147Z,116
2023-03-15T06:17:48.468Z,123.1
2023-03-15T06:22:50.480Z,94.4
2023-03-15T06:27:52.787Z,66.7
2023-03-15T06:32:55.082Z,63.3
2023-03-15T06:37:57.660Z,66.1
2023-03-15T06:42:59.788Z,49.3
2023-03-15T06:48:03.349Z,46.8
2023-03-15T06:53:05.391Z,34.9
2023-03-15T06:58:07.743Z,14.9
2023-03-15T07:03:09.924Z,10.5
2023-03-15T07:08:11.911Z,9.4
2023-03-15T07:13:14.127Z,10.3
2023-03-15T07:18:17.871Z,10.8
2023-03-15T07:23:20.196Z,10.3
2023-03-15T07:28:23.053Z,9.1
2023-03-15T07:33:25.496Z,12
2023-03-15T07:38:28.299Z,10.5
2023-03-15T07:43:30.997Z,10.4
2023-03-15T07:48:33.266Z,10.6
2023-03-15T07:53:35.735Z,20
2023-03-15T07:58:36.418Z,10.2
2023-03-15T08:03:38.922Z,10.2
2023-03-15T08:08:41.250Z,11.6
2023-03-15T08:13:43.368Z,12.8
2023-03-15T08:18:45.420Z,15.6
2023-03-15T08:23:47.771Z,20.8
2023-03-15T08:28:50.099Z,22.9
2023-03-15T08:33:52.178Z,35.5
2023-03-15T08:38:54.219Z,63.1
2023-03-15T08:43:56.319Z,71.8
2023-03-15T08:48:58.468Z,120
2023-03-15T08:54:00.600Z,93.1
2023-03-15T08:59:02.694Z,116.3
2023-03-15T09:04:05.047Z,59.7
2023-03-15T09:09:07.574Z,54.7
2023-03-15T09:19:11.960Z,93.9
2023-03-15T09:24:14.090Z,119.9
2023-03-15T09:29:16.679Z,105.8
2023-03-15T09:34:19.622Z,134
2023-03-15T09:39:27.145Z,138.8
2023-03-15T09:44:29.517Z,169.8
2023-03-15T09:49:31.733Z,176.6
2023-03-15T09:54:33.891Z,221
2023-03-15T09:59:36.060Z,181.2
2023-03-15T10:04:38.299Z,221.5
2023-03-15T10:09:43.462Z,237.2
2023-03-15T10:14:45.743Z,274.8
2023-03-15T10:19:47.825Z,189.3
2023-03-15T10:24:49.999Z,200.3
2023-03-15T10:29:52.307Z,216.6
2023-03-15T10:34:54.549Z,158.1
2023-03-15T10:39:56.753Z,161.2
2023-03-15T10:44:58.903Z,102.6
2023-03-15T10:50:00.962Z,78
2023-03-15T10:55:04.490Z,77.5
2023-03-15T11:00:07.144Z,98.8
2023-03-15T11:05:09.276Z,154.9
2023-03-15T11:10:11.463Z,225.4
2023-03-15T11:15:13.623Z,286.4
2023-03-15T11:20:15.632Z,226.7
2023-03-15T11:25:17.785Z,214.5
2023-03-15T11:30:20.049Z,394.5
2023-03-15T11:35:20.618Z,216.3
2023-03-15T11:40:23.017Z,187.6
2023-03-15T11:45:25.176Z,156.3
2023-03-15T11:50:27.864Z,108.4
2023-03-15T11:55:29.923Z,64
2023-03-15T12:00:31.938Z,54.8
2023-03-15T12:05:34.137Z,70.3
2023-03-15T12:10:36.322Z,84.3
2023-03-15T12:15:38.536Z,111.4
2023-03-15T12:20:40.748Z,60.1
2023-03-15T12:25:54.235Z,51.9
2023-03-15T12:30:47.735Z,81
2023-03-15T12:35:50.016Z,57.4
2023-03-15T12:40:52.266Z,38.3
2023-03-15T12:45:54.418Z,111
2023-03-15T12:50:56.499Z,196.2
2023-03-15T12:56:07.856Z,59.6
2023-03-15T13:01:00.781Z,74.9
2023-03-15T13:06:04.032Z,86.5
2023-03-15T13:11:11.886Z,86.6
2023-03-15T13:16:07.161Z,76.3
2023-03-15T13:21:10.147Z,52.9
2023-03-15T13:26:12.615Z,39.3
2023-03-15T13:31:15.056Z,39.3
2023-03-15T13:36:17.440Z,37.7
2023-03-15T13:41:19.948Z,37.2
2023-03-15T13:46:22.285Z,41.2
2023-03-15T13:51:25.146Z,42
2023-03-15T13:56:28.394Z,37.6
2023-03-15T14:01:30.115Z,120.9
2023-03-15T14:06:32.544Z,121.4
2023-03-15T14:11:34.983Z,59.2
2023-03-15T14:16:42.235Z,42.8
2023-03-15T14:21:47.135Z,20
2023-03-15T14:31:58.326Z,13.6
2023-03-15T14:37:00.792Z,10.4
2023-03-15T14:42:03.270Z,13.5
2023-03-15T14:47:05.905Z,19.5
2023-03-15T14:52:08.029Z,15.5
2023-03-15T14:57:10.131Z,16.1
2023-03-15T15:02:12.254Z,11.7
2023-03-15T15:07:14.640Z,11.6
2023-03-15T15:12:16.829Z,14.9
2023-03-15T15:17:19.199Z,13.3
2023-03-15T15:22:21.881Z,15
2023-03-15T15:27:24.128Z,14.6
2023-03-15T15:32:26.225Z,17.9
2023-03-15T15:37:28.769Z,13.5
2023-03-15T15:42:30.901Z,18.2
2023-03-15T15:47:33.047Z,13.6
2023-03-15T15:52:35.016Z,11.4
2023-03-15T15:57:37.100Z,11.2
2023-03-15T16:02:39.326Z,14.1
2023-03-15T16:07:42.105Z,13.6
2023-03-15T16:12:44.438Z,14.2
2023-03-15T16:17:46.521Z,14.8
2023-03-15T16:22:48.654Z,14
2023-03-15T16:27:50.956Z,12
2023-03-15T16:32:53.420Z,12.6
2023-03-15T16:37:56.349Z,13.6
2023-03-15T16:42:58.681Z,13.9
2023-03-15T16:48:01.502Z,13.4
2023-03-15T16:53:04.095Z,10.8
2023-03-15T16:58:06.624Z,10.4
2023-03-15T17:03:09.028Z,11.3
2023-03-15T17:08:12.135Z,11
2023-03-15T17:13:17.434Z,12.9
2023-03-15T17:18:21.007Z,11.5
2023-03-15T17:23:23.316Z,13.1
2023-03-15T17:28:24.623Z,11.8
2023-03-15T17:33:26.734Z,10.4
2023-03-15T17:38:29.180Z,8
2023-03-15T17:43:31.319Z,9.3
2023-03-15T17:48:33.442Z,16.6
2023-03-15T17:53:36.229Z,9.7
2023-03-15T17:58:38.387Z,11.2
2023-03-15T18:03:41.833Z,13.6
2023-03-15T18:08:44.419Z,12
2023-03-15T18:13:47.150Z,12.8
2023-03-15T18:18:50.177Z,16
2023-03-15T18:23:52.433Z,18.4
2023-03-15T18:28:54.836Z,10.8
2023-03-15T18:33:58.271Z,11.6
2023-03-15T18:39:01.225Z,11.4
2023-03-15T18:44:03.995Z,11
2023-03-15T18:49:06.146Z,9.6
2023-03-15T18:54:08.485Z,10.6
2023-03-15T18:59:10.631Z,10.7
2023-03-15T19:04:13.349Z,10.8
2023-03-15T19:09:15.916Z,11.4
2023-03-15T19:14:18.164Z,12.6
2023-03-15T19:19:20.275Z,12.4
2023-03-15T19:24:22.516Z,12.6
2023-03-15T19:29:24.558Z,9.2
2023-03-15T19:34:26.690Z,13
2023-03-15T19:39:32.098Z,13.1
2023-03-15T19:44:35.778Z,13.1
2023-03-15T19:49:38.856Z,13.5
2023-03-15T19:54:41.507Z,14.1
2023-03-15T19:59:43.569Z,14.4
2023-03-15T20:04:45.681Z,19.1
2023-03-15T20:09:47.707Z,14.8
2023-03-15T20:14:49.834Z,18.8
2023-03-15T20:19:52.155Z,13.7
2023-03-15T20:24:55.809Z,12.1
2023-03-15T20:29:58.508Z,14.1
2023-03-15T20:35:00.843Z,13.4
2023-03-15T20:40:03.443Z,13.5
2023-03-15T20:45:06.042Z,13.1
2023-03-15T20:50:08.355Z,11.2
2023-03-15T20:55:13.648Z,14.1
2023-03-15T21:00:15.965Z,13.8
2023-03-15T21:05:18.371Z,13.3
2023-03-15T21:10:21.116Z,10.9
2023-03-15T21:15:25.220Z,14
2023-03-15T21:20:27.422Z,12.1
2023-03-15T21:25:29.567Z,12.2
2023-03-15T21:30:31.777Z,11.8
2023-03-15T21:35:33.994Z,12.7
2023-03-15T21:40:36.723Z,11.1
2023-03-15T21:45:38.927Z,12.2
2023-03-15T21:50:42.035Z,11.1
2023-03-15T21:55:44.515Z,11.9
2023-03-15T22:00:47.258Z,12.1
2023-03-15T22:05:49.408Z,12.2
2023-03-15T22:10:51.594Z,13.4
2023-03-15T22:15:53.728Z,12.8
2023-03-15T22:20:55.818Z,11.7
2023-03-15T22:25:57.901Z,12.3
2023-03-15T22:30:59.991Z,10.7
2023-03-15T22:36:02.429Z,17.9
2023-03-15T22:41:05.254Z,33.1
2023-03-15T22:46:07.396Z,40.8
2023-03-15T22:51:09.559Z,34.2
2023-03-15T22:56:11.748Z,22.7
2023-03-15T23:01:13.881Z,24.9
2023-03-15T23:06:16.228Z,25.1
2023-03-15T23:11:18.364Z,25.9
2023-03-15T23:16:20.543Z,29.3
2023-03-15T23:21:23.165Z,30.5
2023-03-15T23:26:29.656Z,28.5
2023-03-15T23:31:41.506Z,25.6
2023-03-15T23:41:37.704Z,11.1
2023-03-15T23:46:38.745Z,13.8
